createdAt,value
2018-02-11T08:12:31.664Z,20.20
2018-02-11T08:14:59.230Z,20.10
2018-02-11T08:17:27.674Z,20.20
2018-02-11T08:19:55.268Z,20.10
2018-02-11T08:22:23.727Z,20.30
2018-02-11T08:24:51.371Z,20.20
2018-02-11T08:27:18.969Z,20.40
2018-02-11T08:29:46.539Z,20.40
2018-02-11T08:32:14.983Z,20.50
2018-02-11T08:34:42.580Z,20.50
2018-02-11T08:37:28.677Z,20.50
2018-02-11T08:39:57.355Z,20.40
2018-02-11T08:42:24.927Z,20.40
2018-02-11T08:44:53.263Z,20.50
2018-02-11T08:47:20.848Z,20.50
2018-02-11T08:49:48.421Z,20.50
2018-02-11T08:52:16.743Z,20.50
2018-02-11T08:54:44.334Z,20.50
2018-02-11T08:57:11.933Z,20.60
2018-02-11T08:59:40.252Z,20.50
2018-02-11T09:02:07.847Z,20.50
2018-02-11T09:04:35.408Z,20.50
2018-02-11T09:07:02.980Z,20.50
2018-02-11T09:09:31.332Z,20.50
2018-02-11T09:11:58.893Z,20.50
2018-02-11T09:14:26.454Z,20.50
2018-02-11T09:16:54.048Z,20.50
2018-02-11T09:19:21.664Z,20.50
2018-02-11T09:21:49.233Z,20.50
2018-02-11T09:24:16.852Z,20.60
2018-02-11T09:26:44.415Z,20.60
2018-02-11T09:29:11.986Z,20.60
2018-02-11T09:31:39.568Z,20.60
2018-02-11T09:34:07.140Z,20.60
2018-02-11T09:36:34.709Z,20.60
2018-02-11T09:39:02.319Z,20.60
2018-02-11T09:41:29.882Z,20.60
2018-02-11T09:43:57.472Z,20.60
2018-02-11T09:46:25.073Z,20.60
2018-02-11T09:48:53.421Z,20.50
2018-02-11T09:51:21.026Z,20.50
2018-02-11T09:53:49.394Z,20.60
2018-02-11T09:56:17.730Z,20.50
2018-02-11T09:58:52.950Z,20.50
2018-02-11T10:01:20.543Z,20.50
2018-02-11T10:03:48.144Z,20.50
2018-02-11T10:06:16.496Z,20.50
2018-02-11T10:08:44.066Z,20.50
2018-02-11T10:11:12.425Z,20.60
2018-02-11T10:13:40.020Z,20.60
2018-02-11T10:16:08.375Z,20.60
2018-02-11T10:18:35.951Z,20.50
2018-02-11T10:21:03.549Z,20.60
2018-02-11T10:23:31.118Z,20.60
2018-02-11T10:25:58.698Z,20.50
2018-02-11T10:28:26.275Z,20.50
2018-02-11T10:30:54.595Z,20.50
2018-02-11T10:33:22.989Z,20.50
2018-02-11T10:35:51.326Z,20.40
2018-02-11T10:38:18.888Z,20.50
2018-02-11T10:40:46.462Z,20.40
2018-02-11T10:43:14.800Z,20.40
2018-02-11T10:45:42.359Z,20.40
2018-02-11T10:48:09.979Z,20.40
2018-02-11T11:00:37.787Z,20.60
2018-02-11T11:03:05.374Z,20.60
2018-02-11T11:05:33.719Z,20.60
2018-02-11T11:08:01.306Z,20.60
2018-02-11T11:10:29.650Z,20.70
2018-02-11T11:12:57.226Z,20.60
2018-02-11T11:15:24.796Z,20.60
2018-02-11T11:17:53.154Z,20.60
2018-02-11T11:20:20.725Z,20.60
2018-02-11T11:22:48.307Z,20.60
2018-02-11T11:25:16.650Z,20.60
2018-02-11T11:27:44.202Z,20.60
2018-02-11T11:30:11.772Z,20.60
2018-02-11T11:32:39.367Z,20.60
2018-02-11T11:35:07.723Z,20.60
2018-02-11T11:37:35.287Z,20.60
2018-02-11T11:40:02.880Z,20.60
2018-02-11T11:42:30.456Z,20.60
2018-02-11T11:44:58.081Z,20.60
2018-02-11T11:47:26.449Z,20.60
2018-02-11T11:49:54.026Z,20.60
2018-02-11T11:52:22.371Z,20.70
2018-02-11T11:54:49.948Z,20.60
2018-02-11T11:57:17.508Z,20.70
2018-02-11T11:59:45.079Z,20.70
2018-02-11T12:02:12.672Z,20.80
2018-02-11T12:04:40.238Z,20.90
2018-02-11T12:07:07.809Z,20.90
2018-02-11T12:09:35.402Z,20.90
2018-02-11T12:12:02.982Z,21.00
2018-02-11T12:14:30.605Z,21.10
2018-02-11T12:16:58.276Z,21.10
2018-02-11T12:19:25.859Z,21.10
2018-02-11T12:21:53.438Z,21.10
2018-02-11T12:24:21.876Z,21.00
2018-02-11T12:26:50.210Z,21.00
2018-02-11T12:29:18.622Z,21.00
2018-02-11T12:31:46.292Z,21.00
2018-02-11T12:34:13.959Z,21.10
2018-02-11T12:36:41.524Z,21.10
2018-02-11T12:39:31.462Z,21.10
2018-02-11T12:41:59.878Z,21.10
2018-02-11T12:44:27.546Z,21.10
2018-02-11T12:46:55.144Z,21.10
2018-02-11T12:49:22.746Z,21.10
2018-02-11T12:51:50.559Z,21.10
2018-02-11T12:54:18.162Z,21.10
2018-02-11T12:56:45.734Z,21.20
2018-02-11T12:59:13.319Z,21.20
2018-02-11T13:01:40.983Z,21.20
2018-02-11T13:04:12.436Z,21.10
2018-02-11T13:06:40.108Z,21.20
2018-02-11T13:09:07.785Z,21.20
2018-02-11T13:11:36.248Z,21.20
2018-02-11T13:14:03.831Z,21.20
2018-02-11T13:16:31.467Z,21.20
2018-02-11T13:18:59.047Z,21.20
2018-02-11T13:21:26.652Z,21.30
2018-02-11T13:23:54.242Z,21.30
2018-02-11T13:26:21.807Z,21.30
2018-02-11T13:28:49.388Z,21.30
2018-02-11T13:31:44.542Z,21.30
2018-02-11T13:34:12.112Z,21.30
2018-02-11T13:36:40.427Z,21.40
2018-02-11T13:39:08.570Z,21.30
2018-02-11T13:41:36.139Z,21.30
2018-02-11T13:44:03.707Z,21.40
2018-02-11T13:46:31.381Z,21.30
2018-02-11T13:48:59.059Z,21.30
2018-02-11T13:51:26.636Z,21.20
2018-02-11T13:53:54.238Z,21.10
2018-02-11T13:56:21.828Z,21.10
2018-02-11T13:58:49.405Z,21.10
2018-02-11T14:01:17.042Z,21.10
2018-02-11T14:03:44.704Z,21.20
2018-02-11T14:06:12.264Z,21.20
2018-02-11T14:08:39.938Z,21.20
2018-02-11T14:11:07.608Z,21.30
2018-02-11T14:13:35.275Z,21.30
2018-02-11T14:16:02.848Z,21.20
2018-02-11T14:18:30.444Z,21.20
2018-02-11T14:20:58.049Z,21.20
2018-02-11T14:23:25.644Z,21.20
2018-02-11T14:25:53.976Z,21.20
2018-02-11T14:28:21.583Z,21.10
2018-02-11T14:30:49.291Z,21.10
2018-02-11T14:33:16.864Z,21.10
2018-02-11T14:35:44.529Z,21.10
2018-02-11T14:38:12.115Z,21.00
2018-02-11T14:40:39.778Z,21.00
2018-02-11T14:43:07.426Z,21.00
2018-02-11T14:45:35.097Z,21.00
2018-02-11T14:48:02.666Z,21.00
2018-02-11T14:50:30.239Z,20.90
2018-02-11T14:52:57.861Z,20.90
2018-02-11T14:55:25.435Z,20.80
2018-02-11T14:57:53.037Z,20.80
2018-02-11T15:00:21.385Z,20.80
2018-02-11T15:02:49.037Z,20.80
2018-02-11T15:05:16.629Z,20.70
2018-02-11T15:07:44.248Z,20.70
2018-02-11T15:10:11.922Z,20.70
2018-02-11T15:12:39.578Z,20.70
2018-02-11T15:15:07.258Z,20.70
2018-02-11T15:17:56.078Z,20.60
2018-02-11T15:20:23.654Z,20.60
2018-02-11T15:22:51.212Z,20.60
2018-02-11T15:25:18.900Z,20.60
2018-02-11T15:27:46.609Z,20.60
2018-02-11T15:30:31.709Z,20.50
2018-02-11T15:32:59.384Z,20.50
2018-02-11T15:35:27.065Z,20.50
2018-02-11T15:37:54.683Z,20.50
2018-02-11T15:40:22.267Z,20.50
2018-02-11T15:42:49.829Z,20.50
2018-02-11T15:45:17.412Z,20.50
2018-02-11T15:47:45.051Z,20.40
2018-02-11T15:50:12.730Z,20.40
2018-02-11T15:52:40.296Z,20.40
2018-02-11T15:55:15.988Z,20.40
2018-02-11T15:57:44.318Z,20.30
2018-02-11T16:00:11.905Z,20.30
2018-02-11T16:02:39.525Z,20.30
2018-02-11T16:05:07.187Z,20.30
2018-02-11T16:10:25.874Z,20.20
2018-02-11T16:12:53.450Z,20.20
2018-02-11T16:15:21.825Z,20.20
2018-02-11T16:17:49.463Z,20.20
2018-02-11T16:20:34.425Z,20.10
2018-02-11T16:23:02.002Z,20.20
2018-02-11T16:25:29.672Z,20.10
2018-02-11T16:27:57.377Z,20.10
2018-02-11T16:30:25.853Z,20.10
2018-02-11T16:32:53.435Z,20.10
2018-02-11T16:35:21.907Z,20.00
2018-02-11T16:37:49.504Z,20.00
2018-02-11T16:40:17.072Z,20.00
2018-02-11T16:42:44.638Z,20.00
2018-02-11T16:45:19.826Z,20.00
2018-02-11T16:47:48.166Z,20.00
2018-02-11T16:50:15.756Z,19.90
2018-02-11T16:52:43.381Z,20.00
2018-02-11T16:55:10.962Z,19.90
2018-02-11T16:57:38.593Z,19.90
2018-02-11T17:00:06.194Z,19.90
2018-02-11T17:02:34.545Z,19.90
2018-02-11T17:05:02.108Z,19.90
2018-02-11T17:07:29.695Z,19.90
2018-02-11T17:09:57.319Z,19.90
2018-02-11T17:12:24.978Z,19.90
2018-02-11T17:14:52.587Z,19.90
2018-02-11T17:17:20.935Z,19.90
2018-02-11T17:19:48.498Z,19.90
2018-02-11T17:22:16.074Z,19.90
2018-02-11T17:24:43.704Z,19.90
2018-02-11T17:27:11.378Z,19.90
2018-02-11T17:29:38.969Z,19.90
2018-02-11T17:32:06.591Z,19.80
2018-02-11T17:34:34.147Z,19.80
2018-02-11T17:37:02.414Z,19.80
2018-02-11T17:39:47.229Z,19.80
2018-02-11T17:42:14.863Z,19.80
2018-02-11T17:44:42.623Z,19.80
2018-02-11T17:47:10.541Z,19.70
2018-02-11T17:49:38.876Z,19.70
2018-02-11T17:52:06.542Z,19.70
2018-02-11T17:54:34.196Z,19.80
2018-02-11T17:57:01.866Z,19.80
2018-02-11T17:59:29.464Z,19.80
2018-02-11T18:01:57.924Z,19.80
2018-02-11T18:04:32.841Z,19.70
2018-02-11T18:07:00.405Z,19.80
2018-02-11T18:09:28.109Z,19.80
2018-02-11T18:11:56.535Z,19.70
2018-02-11T18:14:24.156Z,19.70
2018-02-11T18:17:23.099Z,19.80
2018-02-11T18:19:50.716Z,19.70
2018-02-11T18:22:18.326Z,19.70
2018-02-11T18:24:45.917Z,19.70
2018-02-11T18:27:13.555Z,19.70
2018-02-11T18:29:49.507Z,19.70
2018-02-11T18:32:17.179Z,19.70
2018-02-11T18:34:44.789Z,19.80
2018-02-11T18:37:13.146Z,19.90
2018-02-11T18:39:40.763Z,19.90
2018-02-11T18:42:08.330Z,19.90
2018-02-11T18:44:36.011Z,20.10
2018-02-11T18:47:03.660Z,20.10
2018-02-11T18:49:31.334Z,20.20
2018-02-11T18:51:58.909Z,20.20
2018-02-11T18:54:35.074Z,20.30
2018-02-11T18:57:02.707Z,20.30
2018-02-11T18:59:30.286Z,20.30
2018-02-11T19:01:57.951Z,20.30
2018-02-11T19:04:34.443Z,20.30
2018-02-11T19:07:02.811Z,20.30
2018-02-11T19:09:31.079Z,20.30
2018-02-11T19:14:37.133Z,20.30
2018-02-11T19:17:04.791Z,20.40
2018-02-11T19:19:32.457Z,20.40
2018-02-11T19:22:00.057Z,20.40
2018-02-11T19:24:27.680Z,20.40
2018-02-11T19:26:55.347Z,20.40
2018-02-11T19:29:23.006Z,20.40
2018-02-11T19:31:50.574Z,20.40
2018-02-11T19:34:18.224Z,20.40
2018-02-11T19:36:45.905Z,20.40
2018-02-11T19:39:13.553Z,20.40
2018-02-11T19:41:41.113Z,20.40
2018-02-11T19:44:08.692Z,20.40
2018-02-11T19:46:36.267Z,20.40
2018-02-11T19:49:03.904Z,20.40
2018-02-11T19:51:31.567Z,20.40
2018-02-11T19:53:59.138Z,20.40
2018-02-11T19:56:26.781Z,20.40
2018-02-11T19:58:54.496Z,20.30
2018-02-11T20:01:22.115Z,20.30
2018-02-11T20:03:49.691Z,20.30
2018-02-11T20:06:32.066Z,20.30
2018-02-11T20:08:59.740Z,20.30
2018-02-11T20:11:27.492Z,20.30
2018-02-11T20:13:55.065Z,20.30
2018-02-11T20:16:22.728Z,20.30
2018-02-11T20:18:50.289Z,20.40
2018-02-11T20:21:17.890Z,20.30
2018-02-11T20:23:45.534Z,20.40
2018-02-11T20:26:13.093Z,20.40
2018-02-11T20:28:40.746Z,20.40
2018-02-11T20:31:08.405Z,20.40
2018-02-11T20:33:36.730Z,20.40
2018-02-11T20:36:05.067Z,20.40
2018-02-11T20:38:32.625Z,20.40
2018-02-11T20:41:00.232Z,20.40
2018-02-11T20:43:28.604Z,20.50
2018-02-11T20:45:56.164Z,20.50
2018-02-11T20:48:27.572Z,20.50
2018-02-11T20:50:55.165Z,20.50
2018-02-11T20:53:22.739Z,20.50
2018-02-11T20:55:50.466Z,20.50
2018-02-11T20:58:18.064Z,20.50
2018-02-11T21:00:46.502Z,20.50
2018-02-11T21:03:14.175Z,20.50
2018-02-11T21:05:41.782Z,20.50
2018-02-11T21:08:10.109Z,20.50
2018-02-11T21:10:37.678Z,20.50
2018-02-11T21:13:13.122Z,20.50
2018-02-11T21:15:40.691Z,20.50
2018-02-11T21:18:08.297Z,20.60
2018-02-11T21:20:35.873Z,20.60
2018-02-11T21:23:03.459Z,20.60
2018-02-11T21:25:31.114Z,20.60
2018-02-11T21:28:02.610Z,20.60
2018-02-11T21:30:30.186Z,20.50
2018-02-11T21:32:57.776Z,20.50
2018-02-11T21:35:25.463Z,20.50
2018-02-11T21:37:53.018Z,20.50
2018-02-11T21:40:20.576Z,20.50
2018-02-11T21:42:48.139Z,20.50
2018-02-11T21:45:15.815Z,20.50
2018-02-11T21:47:43.366Z,20.50
2018-02-11T21:50:10.930Z,20.50
2018-02-11T21:52:48.718Z,20.50
2018-02-11T21:55:16.884Z,20.50
2018-02-11T21:57:44.565Z,20.50
2018-02-11T22:00:12.154Z,20.50
2018-02-11T22:02:39.817Z,20.40
2018-02-11T22:05:29.738Z,20.40
2018-02-11T22:07:57.327Z,20.50
2018-02-11T22:10:24.875Z,20.40
2018-02-11T22:12:52.457Z,20.40
2018-02-11T22:15:20.052Z,20.40
2018-02-11T22:18:08.623Z,20.40
2018-02-11T22:20:37.041Z,20.30
2018-02-11T22:23:04.701Z,20.30
2018-02-11T22:25:32.281Z,20.20
2018-02-11T22:27:59.981Z,20.30
2018-02-11T22:30:28.427Z,20.20
2018-02-11T22:32:56.000Z,20.20
2018-02-11T22:35:24.459Z,20.10
2018-02-11T22:37:52.022Z,20.10
2018-02-11T22:40:19.595Z,20.20
2018-02-11T22:42:50.707Z,20.10
2018-02-11T22:45:18.261Z,20.10
2018-02-11T22:47:45.840Z,20.10
2018-02-11T22:50:13.403Z,20.10
2018-02-11T22:52:40.963Z,20.10
2018-02-11T22:55:29.074Z,20.00
2018-02-11T22:57:56.768Z,20.00
2018-02-11T23:00:24.453Z,19.90
2018-02-11T23:02:52.100Z,19.90
2018-02-11T23:05:19.921Z,19.90
2018-02-11T23:08:09.557Z,19.90
2018-02-11T23:10:37.115Z,19.90
2018-02-11T23:13:04.692Z,19.90
2018-02-11T23:15:32.311Z,19.90
2018-02-11T23:17:59.896Z,19.80
2018-02-11T23:20:27.570Z,19.80
2018-02-11T23:22:55.212Z,19.80
2018-02-11T23:25:22.780Z,19.80
2018-02-11T23:27:50.431Z,19.70
2018-02-11T23:30:18.214Z,19.70
2018-02-11T23:32:54.300Z,19.70
2018-02-11T23:35:21.880Z,19.70
2018-02-11T23:37:50.202Z,19.70
2018-02-11T23:40:17.866Z,19.60
2018-02-11T23:42:45.478Z,19.70
2018-02-11T23:45:35.682Z,19.60
2018-02-11T23:48:03.277Z,19.60
2018-02-11T23:50:30.839Z,19.60
2018-02-11T23:52:58.517Z,19.50
2018-02-11T23:55:26.154Z,19.50
2018-02-11T23:57:53.829Z,19.50
